Terminal Aerodrome Forecast
Issued by NWS Cleveland, OH

Home | Current Version | Previous Version | Text Only | Print | Product List | Glossary On
Versions: 1 2 3 4 5 6 7 8 9 10 11 12 13 14 15
000
FTUS41 KCLE 082331
TAFMFD
TAF
KMFD 082331Z 0900/0924 26012G20KT 3SM -SHSN OVC020
     FM090900 26012G20KT 3SM -SHSN BKN008 OVC012
     FM091800 26011KT P6SM -SN OVC020=

USA.gov is the U.S. government's official web portal to all federal, state and local government web resources and services.